createdAt,value
2018-03-20T00:00:22.785Z,6.73
2018-03-20T00:02:50.230Z,7.23
2018-03-20T00:05:18.434Z,6.70
2018-03-20T00:07:45.869Z,7.50
2018-03-20T00:10:13.315Z,7.03
2018-03-20T00:12:41.515Z,6.70
2018-03-20T00:15:08.932Z,7.00
2018-03-20T00:17:37.168Z,6.90
2018-03-20T00:20:04.607Z,6.63
2018-03-20T00:22:32.039Z,6.00
2018-03-20T00:25:00.356Z,6.53
2018-03-20T00:27:27.784Z,6.40
2018-03-20T00:29:55.216Z,6.03
2018-03-20T00:32:23.450Z,6.10
2018-03-20T00:34:50.876Z,6.30
2018-03-20T00:37:18.304Z,6.53
2018-03-20T00:39:46.530Z,6.30
2018-03-20T00:42:13.960Z,6.23
2018-03-20T00:44:41.388Z,6.73
2018-03-20T00:47:09.623Z,6.70
2018-03-20T00:49:37.073Z,6.23
2018-03-20T00:52:04.537Z,7.20
2018-03-20T00:54:31.981Z,7.03
2018-03-20T00:56:59.409Z,6.70
2018-03-20T00:59:27.600Z,6.40
2018-03-20T01:01:55.051Z,6.67
2018-03-20T01:04:22.474Z,6.57
2018-03-20T01:06:50.697Z,6.70
2018-03-20T01:09:18.160Z,5.73
2018-03-20T01:11:45.589Z,6.60
2018-03-20T01:14:13.015Z,6.90
2018-03-20T01:16:40.460Z,6.73
2018-03-20T01:19:07.999Z,6.73
2018-03-20T01:21:35.449Z,6.80
2018-03-20T01:24:02.888Z,6.47
2018-03-20T01:26:30.304Z,6.47
2018-03-20T01:28:57.825Z,6.47
2018-03-20T01:31:25.258Z,6.93
2018-03-20T01:33:52.688Z,6.73
2018-03-20T01:36:20.910Z,6.80
2018-03-20T01:38:48.352Z,7.03
2018-03-20T01:41:15.790Z,7.03
2018-03-20T01:43:43.221Z,6.47
2018-03-20T01:46:11.425Z,6.57
2018-03-20T01:48:38.884Z,7.23
2018-03-20T01:51:06.348Z,6.87
2018-03-20T01:53:33.798Z,6.50
2018-03-20T01:56:01.222Z,7.60
2018-03-20T01:58:29.409Z,7.97
2018-03-20T02:00:56.867Z,7.03
2018-03-20T02:03:24.292Z,8.20
2018-03-20T02:05:52.507Z,7.43
2018-03-20T02:08:19.948Z,7.33
2018-03-20T02:10:47.374Z,8.07
2018-03-20T02:13:14.900Z,8.67
2018-03-20T02:15:42.344Z,8.13
2018-03-20T02:18:09.768Z,7.33
2018-03-20T02:20:37.979Z,8.13
2018-03-20T02:23:05.412Z,8.63
2018-03-20T02:25:32.921Z,7.97
2018-03-20T02:28:00.353Z,8.10
2018-03-20T02:30:27.785Z,8.37
2018-03-20T02:32:55.277Z,8.67
2018-03-20T02:35:22.719Z,8.57
2018-03-20T02:37:50.157Z,8.83
2018-03-20T02:40:17.638Z,9.40
2018-03-20T02:42:45.076Z,9.70
2018-03-20T02:45:12.514Z,9.03
2018-03-20T02:47:40.728Z,9.03
2018-03-20T02:50:08.192Z,8.93
2018-03-20T02:52:35.645Z,9.57
2018-03-20T02:55:03.068Z,10.47
2018-03-20T02:57:30.559Z,9.40
2018-03-20T02:59:58.016Z,9.53
2018-03-20T03:02:25.454Z,9.00
2018-03-20T03:04:52.932Z,8.90
2018-03-20T03:07:20.387Z,10.57
2018-03-20T03:09:47.833Z,10.73
2018-03-20T03:12:15.303Z,9.60
2018-03-20T03:14:42.752Z,9.33
2018-03-20T03:17:10.158Z,9.43
2018-03-20T03:19:38.380Z,10.20
2018-03-20T03:22:05.936Z,10.30
2018-03-20T03:24:33.340Z,9.93
2018-03-20T03:27:00.859Z,10.63
2018-03-20T03:29:28.325Z,10.83
2018-03-20T03:31:55.748Z,10.57
2018-03-20T03:34:23.177Z,11.30
2018-03-20T03:36:51.380Z,10.23
2018-03-20T03:39:18.812Z,11.13
2018-03-20T03:41:47.009Z,11.77
2018-03-20T03:44:14.456Z,10.77
2018-03-20T03:46:42.645Z,12.20
2018-03-20T03:49:10.085Z,11.33
2018-03-20T03:51:38.276Z,10.20
2018-03-20T03:54:05.708Z,12.67
2018-03-20T03:56:33.924Z,11.73
2018-03-20T03:59:01.388Z,10.23
2018-03-20T04:01:28.862Z,9.87
2018-03-20T04:03:56.294Z,10.37
2018-03-20T04:06:23.749Z,10.90
2018-03-20T04:08:51.172Z,10.73
2018-03-20T04:11:19.397Z,8.90
2018-03-20T04:13:46.854Z,9.53
2018-03-20T04:16:14.305Z,8.43
2018-03-20T04:18:41.746Z,9.23
2018-03-20T04:21:09.213Z,9.17
2018-03-20T04:23:36.635Z,6.87
2018-03-20T04:26:04.857Z,7.57
2018-03-20T04:28:32.294Z,5.90
2018-03-20T04:30:59.715Z,5.80
2018-03-20T04:33:27.941Z,5.20
2018-03-20T04:35:55.489Z,5.80
2018-03-20T04:38:22.916Z,4.53
2018-03-20T04:40:51.106Z,4.83
2018-03-20T04:43:18.588Z,5.17
2018-03-20T04:45:46.137Z,4.33
2018-03-20T04:48:13.596Z,4.17
2018-03-20T04:50:41.072Z,4.47
2018-03-20T04:53:08.610Z,4.30
2018-03-20T04:55:36.017Z,4.93
2018-03-20T04:58:04.249Z,4.10
2018-03-20T05:00:31.676Z,4.10
2018-03-20T05:02:59.161Z,4.17
2018-03-20T05:05:26.620Z,4.30
2018-03-20T05:07:54.049Z,3.20
2018-03-20T05:10:21.544Z,5.03
2018-03-20T05:12:49.006Z,3.60
2018-03-20T05:15:16.424Z,3.40
2018-03-20T05:17:54.672Z,3.50
2018-03-20T05:20:27.924Z,3.63
2018-03-20T05:23:01.072Z,4.27
2018-03-20T05:25:28.496Z,4.30
2018-03-20T05:27:55.948Z,3.83
2018-03-20T05:30:23.406Z,3.23
2018-03-20T05:32:50.825Z,3.93
2018-03-20T05:35:19.022Z,4.57
2018-03-20T05:37:46.461Z,5.27
2018-03-20T05:40:14.667Z,4.07
2018-03-20T05:42:42.088Z,4.70
2018-03-20T05:45:10.293Z,4.57
2018-03-20T05:51:10.140Z,4.70
2018-03-20T05:53:37.540Z,4.90
2018-03-20T05:56:04.988Z,3.47
2018-03-20T05:58:32.644Z,3.97
2018-03-20T06:01:00.788Z,4.03
2018-03-20T06:03:28.200Z,4.03
2018-03-20T06:05:56.408Z,3.77
2018-03-20T06:08:23.829Z,3.73
2018-03-20T06:10:52.026Z,4.30
2018-03-20T06:13:19.461Z,4.10
2018-03-20T06:15:47.667Z,5.03
2018-03-20T06:18:15.081Z,4.60
2018-03-20T06:20:42.600Z,4.60
2018-03-20T06:23:10.079Z,4.00
2018-03-20T06:25:37.547Z,5.17
2018-03-20T06:28:04.990Z,4.07
2018-03-20T06:30:32.448Z,5.53
2018-03-20T06:32:59.881Z,4.43
2018-03-20T06:35:27.438Z,4.67
2018-03-20T06:37:54.874Z,4.17
2018-03-20T06:40:22.361Z,4.67
2018-03-20T06:42:49.833Z,5.63
2018-03-20T06:45:17.372Z,4.47
2018-03-20T06:47:44.777Z,4.93
2018-03-20T06:50:12.293Z,4.97
2018-03-20T06:52:39.742Z,5.60
2018-03-20T06:55:07.216Z,5.40
2018-03-20T06:57:34.793Z,5.27
2018-03-20T07:00:02.327Z,5.63
2018-03-20T07:02:29.794Z,4.20
2018-03-20T07:04:57.253Z,5.20
2018-03-20T07:07:24.712Z,5.50
2018-03-20T07:09:52.142Z,4.83
2018-03-20T07:12:19.617Z,5.40
2018-03-20T07:14:47.049Z,4.50
2018-03-20T07:17:14.478Z,5.13
2018-03-20T07:19:42.685Z,4.97
2018-03-20T07:22:10.117Z,5.13
2018-03-20T07:24:38.329Z,5.00
2018-03-20T07:27:05.783Z,4.53
2018-03-20T07:29:33.337Z,4.50
2018-03-20T07:32:00.835Z,4.33
2018-03-20T07:34:28.404Z,4.47
2018-03-20T07:36:55.810Z,3.93
2018-03-20T07:39:23.382Z,3.73
2018-03-20T07:41:50.814Z,3.50
2018-03-20T07:44:18.304Z,4.57
2018-03-20T07:46:45.759Z,3.73
2018-03-20T07:49:13.201Z,3.47
2018-03-20T07:51:40.675Z,3.13
2018-03-20T07:54:08.241Z,2.97
2018-03-20T07:56:35.693Z,3.10
2018-03-20T07:59:03.137Z,3.37
2018-03-20T08:01:30.610Z,3.13
2018-03-20T08:03:58.074Z,3.10
2018-03-20T08:06:25.501Z,2.90
2018-03-20T08:08:52.968Z,2.93
2018-03-20T08:11:20.419Z,3.27
2018-03-20T08:13:47.902Z,2.90
2018-03-20T08:16:16.065Z,3.17
2018-03-20T08:18:43.513Z,2.73
2018-03-20T08:21:10.950Z,3.07
2018-03-20T08:23:38.376Z,2.80
2018-03-20T08:26:06.610Z,2.63
2018-03-20T08:28:34.288Z,3.87
2018-03-20T08:31:01.737Z,2.90
2018-03-20T08:33:29.185Z,2.63
2018-03-20T08:35:56.629Z,3.50
2018-03-20T08:38:24.098Z,3.27
2018-03-20T08:40:51.536Z,3.53
2018-03-20T08:43:18.960Z,3.03
2018-03-20T08:45:47.214Z,3.47
2018-03-20T08:48:14.736Z,2.57
2018-03-20T08:50:42.196Z,2.30
2018-03-20T08:53:09.658Z,2.30
2018-03-20T08:55:37.108Z,2.13
2018-03-20T08:58:04.558Z,2.10
2018-03-20T09:00:31.983Z,2.67
2018-03-20T09:03:00.170Z,2.80
2018-03-20T09:05:27.584Z,2.37
2018-03-20T09:07:55.113Z,2.90
2018-03-20T09:10:22.595Z,2.10
2018-03-20T09:12:50.008Z,2.20
2018-03-20T09:15:17.483Z,2.07
2018-03-20T09:17:44.908Z,2.10
2018-03-20T09:20:13.117Z,3.03
2018-03-20T09:22:40.566Z,2.47
2018-03-20T09:25:08.123Z,1.90
2018-03-20T09:27:35.548Z,1.90
2018-03-20T09:30:02.998Z,2.20
2018-03-20T09:32:31.208Z,1.97
2018-03-20T09:34:58.632Z,1.97
2018-03-20T09:37:26.832Z,2.33
2018-03-20T09:39:54.310Z,1.83
2018-03-20T09:42:21.796Z,1.93
2018-03-20T09:44:49.325Z,2.00
2018-03-20T09:47:16.882Z,2.17
2018-03-20T09:49:44.349Z,2.00
2018-03-20T09:52:11.787Z,2.27
2018-03-20T09:54:39.251Z,2.03
2018-03-20T09:57:06.658Z,2.27
2018-03-20T09:59:34.098Z,1.40
2018-03-20T10:02:01.545Z,1.93
2018-03-20T10:04:28.961Z,1.97
2018-03-20T10:06:56.390Z,1.53
2018-03-20T10:09:23.916Z,1.83
2018-03-20T10:11:51.356Z,1.80
2018-03-20T10:14:18.812Z,1.77
2018-03-20T10:16:46.249Z,2.07
2018-03-20T10:19:13.730Z,2.13
2018-03-20T10:21:41.180Z,2.17
2018-03-20T10:24:08.603Z,2.03
2018-03-20T10:26:36.809Z,2.40
2018-03-20T10:29:04.277Z,2.20
2018-03-20T10:31:31.802Z,1.80
2018-03-20T10:33:59.288Z,1.60
2018-03-20T10:36:26.856Z,2.00
2018-03-20T10:38:54.311Z,2.13
2018-03-20T10:41:21.728Z,1.70
2018-03-20T10:43:49.233Z,1.60
2018-03-20T10:46:17.384Z,2.30
2018-03-20T10:48:44.814Z,2.03
2018-03-20T10:51:13.001Z,1.90
2018-03-20T10:53:40.518Z,2.03
2018-03-20T10:56:07.981Z,2.10
2018-03-20T10:58:36.374Z,1.43
2018-03-20T11:01:05.728Z,2.03
2018-03-20T11:03:33.156Z,3.80
2018-03-20T11:06:00.584Z,1.97
2018-03-20T11:08:28.094Z,2.40
2018-03-20T11:10:55.549Z,2.70
2018-03-20T11:13:23.004Z,1.70
2018-03-20T11:15:50.461Z,2.23
2018-03-20T11:18:17.900Z,1.57
2018-03-20T11:20:45.338Z,1.20
2018-03-20T11:23:12.820Z,1.50
2018-03-20T11:25:40.263Z,1.87
2018-03-20T11:28:07.700Z,1.37
2018-03-20T11:30:35.179Z,1.50
2018-03-20T11:33:02.607Z,1.50
2018-03-20T11:35:30.854Z,1.67
2018-03-20T11:37:58.293Z,1.40
2018-03-20T11:40:25.745Z,1.20
2018-03-20T11:42:53.168Z,1.30
2018-03-20T11:45:20.605Z,1.33
2018-03-20T11:47:48.821Z,1.23
2018-03-20T11:50:16.304Z,1.63
2018-03-20T11:52:43.746Z,1.17
2018-03-20T11:55:11.169Z,1.30
2018-03-20T11:57:38.588Z,2.00
2018-03-20T12:00:06.037Z,1.33
2018-03-20T12:02:33.468Z,1.10
2018-03-20T12:05:00.900Z,1.10
2018-03-20T12:07:28.337Z,1.13
2018-03-20T12:09:56.543Z,1.87
2018-03-20T12:12:23.973Z,2.60
2018-03-20T12:14:52.278Z,1.97
2018-03-20T12:17:19.743Z,1.00
2018-03-20T12:19:47.207Z,1.00
2018-03-20T12:22:15.363Z,1.40
2018-03-20T12:24:42.785Z,1.20
2018-03-20T12:27:10.970Z,1.20
2018-03-20T12:29:38.408Z,1.20
2018-03-20T12:32:06.626Z,1.40
2018-03-20T12:34:34.089Z,1.00
2018-03-20T12:37:01.542Z,1.10
2018-03-20T12:39:28.944Z,0.93
2018-03-20T12:41:56.465Z,1.13
2018-03-20T12:44:23.907Z,1.10
2018-03-20T12:46:51.325Z,1.10
2018-03-20T12:49:19.520Z,0.97
2018-03-20T12:51:47.721Z,1.17
2018-03-20T12:54:15.187Z,1.03
2018-03-20T12:56:42.609Z,1.23
2018-03-20T12:59:10.092Z,1.07
2018-03-20T13:01:37.517Z,1.13
2018-03-20T13:04:05.726Z,1.20
2018-03-20T13:06:33.164Z,1.40
2018-03-20T13:09:00.648Z,1.33
2018-03-20T13:11:28.063Z,1.10
2018-03-20T13:13:56.376Z,0.70
2018-03-20T13:16:23.833Z,1.20
2018-03-20T13:18:51.254Z,1.20
2018-03-20T13:21:19.455Z,0.90
2018-03-20T13:23:46.876Z,1.00
2018-03-20T13:26:15.072Z,0.87
2018-03-20T13:28:42.494Z,1.00
2018-03-20T13:31:09.925Z,1.13
2018-03-20T13:33:37.364Z,0.90
2018-03-20T13:36:04.813Z,1.07
2018-03-20T13:38:32.289Z,1.00
2018-03-20T13:40:59.975Z,1.10
2018-03-20T13:43:29.030Z,0.80
2018-03-20T13:45:56.589Z,0.87
2018-03-20T13:48:24.148Z,1.00
2018-03-20T13:50:52.699Z,1.20
2018-03-20T13:53:25.461Z,1.50
2018-03-20T13:55:52.897Z,1.20
2018-03-20T13:58:20.531Z,1.10
2018-03-20T14:00:47.940Z,1.23
2018-03-20T14:03:15.377Z,1.20
2018-03-20T14:05:42.804Z,1.10
2018-03-20T14:08:10.262Z,0.80
2018-03-20T14:10:37.709Z,1.10
2018-03-20T14:13:05.185Z,0.90
2018-03-20T14:15:32.637Z,1.20
2018-03-20T14:18:00.088Z,1.23
2018-03-20T14:20:27.548Z,1.60
2018-03-20T14:22:54.979Z,1.60
2018-03-20T14:25:22.417Z,1.20
2018-03-20T14:27:50.612Z,1.17
2018-03-20T14:30:18.032Z,1.07
2018-03-20T14:32:45.563Z,1.33
2018-03-20T14:35:13.016Z,0.90
2018-03-20T14:37:40.465Z,1.57
2018-03-20T14:40:07.933Z,1.20
2018-03-20T14:42:35.379Z,1.40
2018-03-20T14:45:02.810Z,1.10
2018-03-20T14:47:30.296Z,1.33
2018-03-20T14:49:57.731Z,0.90
2018-03-20T14:52:25.211Z,1.10
2018-03-20T14:54:52.701Z,1.30
2018-03-20T14:57:20.096Z,1.13
2018-03-20T14:59:47.581Z,1.50
2018-03-20T15:02:15.041Z,1.20
2018-03-20T15:04:42.469Z,1.00
2018-03-20T15:07:09.905Z,1.30
2018-03-20T15:09:38.122Z,1.17
2018-03-20T15:12:05.614Z,1.00
2018-03-20T15:14:33.149Z,1.20
2018-03-20T15:17:00.602Z,1.53
2018-03-20T15:19:28.038Z,1.60
2018-03-20T15:21:55.519Z,1.30
2018-03-20T15:24:23.071Z,1.43
2018-03-20T15:26:50.628Z,1.53
2018-03-20T15:29:18.139Z,1.03
2018-03-20T15:31:45.572Z,1.33
2018-03-20T15:34:13.024Z,1.50
2018-03-20T15:36:40.450Z,1.40
2018-03-20T15:39:07.913Z,1.70
2018-03-20T15:41:35.328Z,1.63
2018-03-20T15:44:03.538Z,2.00
2018-03-20T15:46:30.968Z,1.70
2018-03-20T15:48:59.172Z,1.80
2018-03-20T15:51:26.590Z,1.60
2018-03-20T15:53:54.801Z,2.00
2018-03-20T15:56:22.278Z,1.83
2018-03-20T15:58:49.733Z,1.80
2018-03-20T16:01:17.630Z,1.87
2018-03-20T16:03:45.152Z,1.73
2018-03-20T16:06:12.613Z,1.80
2018-03-20T16:08:40.077Z,1.67
2018-03-20T16:11:07.529Z,1.98
2018-03-20T16:13:35.032Z,1.70
2018-03-20T16:16:02.474Z,1.98
2018-03-20T16:18:29.889Z,1.98
2018-03-20T16:20:57.361Z,1.80
2018-03-20T16:23:24.808Z,2.07
2018-03-20T16:25:52.252Z,1.60
2018-03-20T16:28:19.728Z,1.87
2018-03-20T16:30:47.189Z,1.70
2018-03-20T16:33:14.620Z,1.83
2018-03-20T16:35:42.048Z,1.50
2018-03-20T16:38:10.262Z,1.67
2018-03-20T16:40:37.703Z,2.00
2018-03-20T16:43:05.125Z,1.30
2018-03-20T16:45:32.646Z,5.37
2018-03-20T16:48:00.099Z,1.90
2018-03-20T16:50:27.568Z,1.90
2018-03-20T16:52:55.009Z,2.00
2018-03-20T16:55:22.435Z,1.67
2018-03-20T16:57:50.649Z,1.97
2018-03-20T17:00:18.112Z,2.17
2018-03-20T17:02:45.556Z,1.60
2018-03-20T17:05:12.982Z,1.93
2018-03-20T17:07:41.183Z,1.67
2018-03-20T17:10:08.650Z,2.03
2018-03-20T17:12:36.111Z,2.57
2018-03-20T17:15:03.568Z,2.33
2018-03-20T17:17:31.042Z,1.87
2018-03-20T17:19:58.484Z,1.37
2018-03-20T17:22:25.934Z,1.63
2018-03-20T17:24:53.362Z,1.83
2018-03-20T17:27:21.554Z,2.20
2018-03-20T17:29:49.025Z,1.70
2018-03-20T17:32:16.463Z,1.50
2018-03-20T17:34:43.941Z,1.93
2018-03-20T17:37:11.385Z,1.60
2018-03-20T17:39:38.853Z,2.80
2018-03-20T17:42:06.293Z,1.90
2018-03-20T17:44:33.782Z,1.63
2018-03-20T17:47:01.189Z,1.83
2018-03-20T17:49:29.386Z,2.33
2018-03-20T17:51:56.841Z,2.10
2018-03-20T17:54:24.261Z,3.00
2018-03-20T17:56:52.474Z,2.27
2018-03-20T17:59:19.934Z,2.80
2018-03-20T18:01:47.369Z,2.97
2018-03-20T18:04:15.576Z,2.70
2018-03-20T18:06:43.035Z,2.67
2018-03-20T18:09:10.468Z,2.97
2018-03-20T18:11:37.960Z,2.83
2018-03-20T18:14:05.424Z,2.70
2018-03-20T18:16:32.961Z,2.60
2018-03-20T18:19:00.515Z,2.73
2018-03-20T18:21:27.977Z,3.27
2018-03-20T18:23:55.415Z,2.90
2018-03-20T18:26:22.904Z,2.67
2018-03-20T18:28:50.452Z,3.10
2018-03-20T18:31:17.885Z,3.07
2018-03-20T18:33:45.369Z,3.53
2018-03-20T18:36:12.827Z,3.80
2018-03-20T18:38:40.264Z,3.30
2018-03-20T18:41:07.689Z,4.17
2018-03-20T18:43:35.906Z,2.93
2018-03-20T18:46:03.370Z,4.47
2018-03-20T18:48:30.923Z,4.20
2018-03-20T18:50:58.588Z,3.37
2018-03-20T18:53:26.028Z,3.80
2018-03-20T18:55:53.525Z,3.20
2018-03-20T18:58:20.960Z,2.73
2018-03-20T19:00:48.397Z,3.07
2018-03-20T19:03:15.854Z,3.13
2018-03-20T19:05:43.341Z,3.23
2018-03-20T19:08:10.764Z,3.07
2018-03-20T19:10:38.192Z,3.10
2018-03-20T19:13:06.407Z,3.20
2018-03-20T19:15:33.906Z,3.03
2018-03-20T19:18:01.518Z,2.80
2018-03-20T19:20:28.964Z,3.87
2018-03-20T19:22:57.193Z,3.20
2018-03-20T19:25:24.637Z,3.43
2018-03-20T19:27:52.186Z,3.20
2018-03-20T19:30:19.702Z,3.37
2018-03-20T19:32:47.084Z,3.53
2018-03-20T19:35:14.553Z,2.50
2018-03-20T19:37:41.982Z,3.23
2018-03-20T19:40:10.173Z,3.77
2018-03-20T19:42:37.627Z,3.50
2018-03-20T19:45:05.139Z,4.13
2018-03-20T19:47:32.557Z,3.77
2018-03-20T19:49:59.998Z,3.77
2018-03-20T19:52:27.473Z,4.03
2018-03-20T19:54:55.032Z,4.67
2018-03-20T19:57:22.457Z,4.97
2018-03-20T19:59:50.670Z,4.43
2018-03-20T20:02:18.088Z,4.30
2018-03-20T20:04:46.405Z,4.40
2018-03-20T20:07:13.866Z,5.60
2018-03-20T20:09:41.335Z,5.17
2018-03-20T20:12:08.824Z,6.73
2018-03-20T20:14:36.236Z,4.83
2018-03-20T20:17:03.672Z,5.60
2018-03-20T20:19:31.103Z,5.23
2018-03-20T20:21:59.331Z,4.70
2018-03-20T20:24:26.774Z,5.37
2018-03-20T20:26:54.269Z,4.87
2018-03-20T20:29:21.706Z,5.17
2018-03-20T20:31:49.152Z,6.20
2018-03-20T20:34:16.640Z,5.40
2018-03-20T20:36:44.197Z,5.57
2018-03-20T20:39:11.621Z,5.90
2018-03-20T20:41:39.072Z,5.63
2018-03-20T20:44:06.495Z,5.23
2018-03-20T20:46:34.702Z,6.47
2018-03-20T20:49:02.138Z,5.97
2018-03-20T20:51:29.568Z,6.43
2018-03-20T20:53:56.988Z,7.63
2018-03-20T20:56:24.613Z,8.40
2018-03-20T20:58:52.787Z,6.30
2018-03-20T21:01:20.277Z,6.60
2018-03-20T21:03:47.725Z,6.93
2018-03-20T21:06:15.160Z,6.07
2018-03-20T21:08:43.361Z,5.77
2018-03-20T21:11:10.798Z,6.83
2018-03-20T21:13:38.375Z,6.57
2018-03-20T21:16:05.780Z,6.73
2018-03-20T21:18:33.388Z,6.83
2018-03-20T21:21:00.844Z,7.23
2018-03-20T21:23:28.290Z,6.27
2018-03-20T21:25:56.526Z,6.63
2018-03-20T21:28:24.206Z,5.90
2018-03-20T21:30:52.408Z,6.63
2018-03-20T21:33:19.881Z,5.77
2018-03-20T21:35:47.340Z,7.03
2018-03-20T21:38:14.801Z,6.67
2018-03-20T21:40:42.242Z,8.83
2018-03-20T21:43:09.710Z,6.63
2018-03-20T21:45:37.133Z,7.07
2018-03-20T21:48:04.569Z,7.30
2018-03-20T21:50:32.764Z,8.03
2018-03-20T21:53:00.976Z,7.93
2018-03-20T21:55:28.465Z,6.90
2018-03-20T21:57:55.888Z,6.40
2018-03-20T22:00:23.345Z,8.27
2018-03-20T22:02:50.801Z,8.20
2018-03-20T22:05:18.261Z,7.90
2018-03-20T22:07:45.704Z,6.67
2018-03-20T22:10:13.169Z,6.20
2018-03-20T22:12:40.632Z,7.10
2018-03-20T22:15:08.089Z,6.67
2018-03-20T22:17:35.539Z,7.97
2018-03-20T22:20:02.968Z,7.27
2018-03-20T22:22:30.449Z,6.40
2018-03-20T22:24:57.869Z,7.63
2018-03-20T22:27:26.096Z,7.80
2018-03-20T22:29:53.536Z,6.87
2018-03-20T22:32:20.969Z,7.43
2018-03-20T22:34:49.171Z,7.40
2018-03-20T22:37:16.586Z,7.23
2018-03-20T22:39:44.074Z,7.60
2018-03-20T22:42:11.490Z,6.87
2018-03-20T22:44:38.925Z,7.33
2018-03-20T22:47:06.360Z,7.40
2018-03-20T22:49:33.821Z,6.63
2018-03-20T22:52:01.275Z,7.23
2018-03-20T22:54:28.718Z,8.27
2018-03-20T22:56:56.157Z,5.87
2018-03-20T22:59:24.365Z,6.23
2018-03-20T23:01:51.832Z,7.07
2018-03-20T23:04:19.372Z,7.37
2018-03-20T23:06:46.777Z,7.40
2018-03-20T23:09:14.299Z,7.40
2018-03-20T23:11:41.748Z,7.20
2018-03-20T23:14:09.185Z,6.87
2018-03-20T23:16:36.632Z,6.53
2018-03-20T23:19:04.830Z,6.40
2018-03-20T23:21:32.301Z,7.30
2018-03-20T23:23:59.752Z,7.63
2018-03-20T23:26:27.185Z,7.23
2018-03-20T23:28:55.918Z,7.33
2018-03-20T23:31:23.366Z,7.47
2018-03-20T23:33:50.826Z,7.33
2018-03-20T23:36:18.292Z,7.60
2018-03-20T23:38:45.733Z,7.67
2018-03-20T23:41:13.152Z,6.57
2018-03-20T23:43:40.589Z,7.80
2018-03-20T23:46:08.845Z,7.70
2018-03-20T23:48:37.798Z,7.23
2018-03-20T23:51:05.216Z,7.47
2018-03-20T23:53:33.444Z,7.87
2018-03-20T23:56:00.883Z,8.97
2018-03-20T23:58:28.360Z,7.80
